createdAt,value
2017-04-09T00:00:37.108Z,1019.93
2017-04-09T00:01:46.056Z,1019.9
2017-04-09T00:02:55.350Z,1019.91
2017-04-09T00:04:04.306Z,1019.91
2017-04-09T00:05:13.354Z,1019.91
2017-04-09T00:06:22.398Z,1019.92
2017-04-09T00:07:31.686Z,1019.97
2017-04-09T00:08:40.903Z,1019.97
2017-04-09T00:09:49.856Z,1019.98
2017-04-09T00:10:58.816Z,1019.94
2017-04-09T00:12:07.775Z,1019.91
2017-04-09T00:13:16.732Z,1019.9
2017-04-09T00:14:25.958Z,1019.92
2017-04-09T00:15:34.919Z,1019.9
2017-04-09T00:16:43.875Z,1019.89
2017-04-09T00:17:52.830Z,1019.9
2017-04-09T00:19:01.788Z,1019.9
2017-04-09T00:20:10.989Z,1019.94
2017-04-09T00:21:19.942Z,1019.9
2017-04-09T00:22:28.897Z,1019.92
2017-04-09T00:23:37.859Z,1019.95
2017-04-09T00:24:46.807Z,1019.94
2017-04-09T00:25:56.008Z,1019.91
2017-04-09T00:27:04.961Z,1019.98
2017-04-09T00:28:13.918Z,1019.93
2017-04-09T00:29:22.866Z,1019.95
2017-04-09T00:30:31.816Z,1019.97
2017-04-09T00:31:41.354Z,1019.95
2017-04-09T00:32:50.315Z,1019.95
2017-04-09T00:33:59.281Z,1019.96
2017-04-09T00:35:08.242Z,1019.93
2017-04-09T00:36:17.197Z,1020
2017-04-09T00:37:26.409Z,1019.96
2017-04-09T00:38:35.365Z,1019.98
2017-04-09T00:39:44.324Z,1019.98
2017-04-09T00:40:53.281Z,1020
2017-04-09T00:42:02.244Z,1019.98
2017-04-09T00:43:11.457Z,1020.02
2017-04-09T00:44:20.420Z,1020.02
2017-04-09T00:45:29.378Z,1020.02
2017-04-09T00:46:38.343Z,1020
2017-04-09T00:47:47.299Z,1020.01
2017-04-09T00:48:56.594Z,1020.07
2017-04-09T00:50:05.546Z,1020.03
2017-04-09T00:51:14.510Z,1020.03
2017-04-09T00:52:23.476Z,1020.04
2017-04-09T00:53:32.445Z,1020
2017-04-09T00:54:41.795Z,1020.06
2017-04-09T00:55:50.751Z,1020.02
2017-04-09T00:56:59.707Z,1020
2017-04-09T00:58:08.674Z,1020
2017-04-09T00:59:17.636Z,1019.99
2017-04-09T01:00:27.167Z,1020.02
2017-04-09T01:01:36.123Z,1020.02
2017-04-09T01:02:45.409Z,1020.01
2017-04-09T01:03:54.365Z,1020.05
2017-04-09T01:05:03.318Z,1019.99
2017-04-09T01:06:12.524Z,1020.05
2017-04-09T01:07:21.570Z,1020.04
2017-04-09T01:08:30.536Z,1020.05
2017-04-09T01:09:39.502Z,1020
2017-04-09T01:10:48.466Z,1019.99
2017-04-09T01:11:57.674Z,1020.01
2017-04-09T01:13:06.632Z,1020.02
2017-04-09T01:14:15.589Z,1019.99
2017-04-09T01:15:24.647Z,1020.01
2017-04-09T01:16:33.689Z,1020
2017-04-09T01:17:42.898Z,1020
2017-04-09T01:18:51.862Z,1020.02
2017-04-09T01:20:00.815Z,1019.97
2017-04-09T01:21:09.772Z,1019.98
2017-04-09T01:22:18.819Z,1020
2017-04-09T01:23:28.033Z,1020.01
2017-04-09T01:24:36.983Z,1020
2017-04-09T01:25:45.937Z,1019.99
2017-04-09T01:26:54.897Z,1019.99
2017-04-09T01:28:03.850Z,1020.04
2017-04-09T01:29:13.049Z,1020.02
2017-04-09T01:30:22.001Z,1020
2017-04-09T01:31:30.962Z,1020.01
2017-04-09T01:32:39.911Z,1020.01
2017-04-09T01:33:48.870Z,1020
2017-04-09T01:34:58.158Z,1020.03
2017-04-09T01:36:07.110Z,1020
2017-04-09T01:37:16.065Z,1020.07
2017-04-09T01:38:25.019Z,1019.97
2017-04-09T01:39:33.974Z,1020
2017-04-09T01:40:43.179Z,1020.02
2017-04-09T01:41:52.133Z,1020.03
2017-04-09T01:43:01.099Z,1019.98
2017-04-09T01:44:10.058Z,1019.97
2017-04-09T01:45:19.025Z,1020
2017-04-09T01:46:28.230Z,1019.98
2017-04-09T01:47:37.185Z,1019.95
2017-04-09T01:48:46.153Z,1019.98
2017-04-09T01:49:55.107Z,1019.96
2017-04-09T01:51:04.075Z,1019.92
2017-04-09T01:52:13.370Z,1019.99
2017-04-09T01:53:22.327Z,1019.94
2017-04-09T01:54:31.286Z,1019.98
2017-04-09T01:55:40.248Z,1019.96
2017-04-09T01:56:49.201Z,1020
2017-04-09T01:57:58.409Z,1019.94
2017-04-09T01:59:07.458Z,1019.97
2017-04-09T02:00:16.503Z,1019.93
2017-04-09T02:01:25.457Z,1019.96
2017-04-09T02:02:34.416Z,1019.92
2017-04-09T02:03:43.627Z,1019.98
2017-04-09T02:04:52.589Z,1019.99
2017-04-09T02:06:01.546Z,1019.95
2017-04-09T02:07:10.502Z,1019.96
2017-04-09T02:08:19.459Z,1019.97
2017-04-09T02:09:28.669Z,1020
2017-04-09T02:10:37.627Z,1019.98
2017-04-09T02:11:46.589Z,1020
2017-04-09T02:12:55.546Z,1019.98
2017-04-09T02:14:04.507Z,1020
2017-04-09T02:15:13.714Z,1020.02
2017-04-09T02:16:22.668Z,1020.03
2017-04-09T02:17:31.625Z,1019.99
2017-04-09T02:18:40.584Z,1020.04
2017-04-09T02:19:49.881Z,1020
2017-04-09T02:20:59.087Z,1019.97
2017-04-09T02:22:08.048Z,1020.01
2017-04-09T02:23:16.998Z,1020.01
2017-04-09T02:24:25.951Z,1020.01
2017-04-09T02:25:34.996Z,1020.05
2017-04-09T02:26:44.203Z,1020.01
2017-04-09T02:27:53.160Z,1020.03
2017-04-09T02:29:02.110Z,1020.01
2017-04-09T02:30:11.157Z,1020.01
2017-04-09T02:31:20.109Z,1020.03
2017-04-09T02:32:29.319Z,1019.99
2017-04-09T02:33:38.277Z,1020.04
2017-04-09T02:34:47.239Z,1019.98
2017-04-09T02:35:56.200Z,1019.97
2017-04-09T02:37:05.157Z,1020.01
2017-04-09T02:38:14.365Z,1019.98
2017-04-09T02:39:23.318Z,1019.99
2017-04-09T02:40:32.277Z,1019.98
2017-04-09T02:41:41.236Z,1020.05
2017-04-09T02:42:50.201Z,1019.99
2017-04-09T02:43:59.418Z,1020.01
2017-04-09T02:45:08.380Z,1020.02
2017-04-09T02:46:17.432Z,1020.03
2017-04-09T02:47:26.386Z,1019.99
2017-04-09T02:48:35.341Z,1020.01
2017-04-09T02:49:44.547Z,1019.99
2017-04-09T02:50:53.502Z,1020
2017-04-09T02:52:02.464Z,1020
2017-04-09T02:53:11.419Z,1019.98
2017-04-09T02:54:20.369Z,1020
2017-04-09T02:55:29.578Z,1019.98
2017-04-09T02:56:38.532Z,1020
2017-04-09T02:57:47.482Z,1020.02
2017-04-09T02:58:56.437Z,1020
2017-04-09T03:00:05.390Z,1019.96
2017-04-09T03:01:14.644Z,1019.96
2017-04-09T03:02:23.599Z,1019.98
2017-04-09T03:03:32.561Z,1019.99
2017-04-09T03:04:41.515Z,1019.96
2017-04-09T03:05:50.464Z,1019.92
2017-04-09T03:06:59.674Z,1019.96
2017-04-09T03:08:08.720Z,1019.94
2017-04-09T03:09:17.679Z,1019.94
2017-04-09T03:10:26.638Z,1019.97
2017-04-09T03:11:35.638Z,1019.94
2017-04-09T03:12:44.851Z,1019.97
2017-04-09T03:13:53.813Z,1019.97
2017-04-09T03:15:02.776Z,1019.94
2017-04-09T03:16:11.823Z,1019.92
2017-04-09T03:17:20.783Z,1019.95
2017-04-09T03:18:29.988Z,1019.94
2017-04-09T03:19:38.952Z,1019.91
2017-04-09T03:20:47.904Z,1019.92
2017-04-09T03:21:56.857Z,1019.93
2017-04-09T03:23:05.811Z,1019.94
2017-04-09T03:24:15.021Z,1019.91
2017-04-09T03:25:24.723Z,1019.9
2017-04-09T03:26:33.680Z,1019.91
2017-04-09T03:27:42.644Z,1019.9
2017-04-09T03:28:51.699Z,1019.91
2017-04-09T03:30:00.912Z,1019.89
2017-04-09T03:31:09.869Z,1019.88
2017-04-09T03:32:18.832Z,1019.86
2017-04-09T03:33:28.119Z,1019.84
2017-04-09T03:34:37.081Z,1019.84
2017-04-09T03:35:46.288Z,1019.89
2017-04-09T03:36:55.243Z,1019.87
2017-04-09T03:38:04.200Z,1019.89
2017-04-09T03:39:13.515Z,1019.89
2017-04-09T03:40:22.473Z,1019.86
2017-04-09T03:41:31.682Z,1019.96
2017-04-09T03:42:40.635Z,1019.92
2017-04-09T03:43:49.599Z,1019.93
2017-04-09T03:44:58.552Z,1019.92
2017-04-09T03:46:07.510Z,1019.9
2017-04-09T03:47:16.713Z,1019.91
2017-04-09T03:48:25.667Z,1019.89
2017-04-09T03:49:34.624Z,1019.9
2017-04-09T03:50:43.584Z,1019.9
2017-04-09T03:51:52.540Z,1019.91
2017-04-09T03:53:01.744Z,1019.95
2017-04-09T03:54:10.702Z,1019.93
2017-04-09T03:55:19.667Z,1019.91
2017-04-09T03:56:28.621Z,1019.95
2017-04-09T03:57:37.574Z,1019.94
2017-04-09T03:58:46.772Z,1019.92
2017-04-09T03:59:55.719Z,1019.94
2017-04-09T04:01:04.678Z,1019.97
2017-04-09T04:02:13.635Z,1019.94
2017-04-09T04:03:22.592Z,1019.93
2017-04-09T04:04:31.805Z,1019.96
2017-04-09T04:05:40.759Z,1020
2017-04-09T04:06:49.802Z,1019.9
2017-04-09T04:07:58.754Z,1019.94
2017-04-09T04:09:08.032Z,1019.91
2017-04-09T04:10:17.385Z,1019.91
2017-04-09T04:11:26.340Z,1019.91
2017-04-09T04:12:35.290Z,1019.9
2017-04-09T04:13:44.240Z,1019.9
2017-04-09T04:14:53.196Z,1019.95
2017-04-09T04:16:02.457Z,1019.96
2017-04-09T04:17:11.419Z,1019.98
2017-04-09T04:18:20.391Z,1019.99
2017-04-09T04:19:29.347Z,1019.97
2017-04-09T04:20:38.305Z,1019.92
2017-04-09T04:21:47.509Z,1019.97
2017-04-09T04:22:56.464Z,1019.99
2017-04-09T04:24:05.423Z,1019.99
2017-04-09T04:25:14.377Z,1019.99
2017-04-09T04:26:23.347Z,1020.01
2017-04-09T04:27:32.554Z,1019.97
2017-04-09T04:28:41.565Z,1020.01
2017-04-09T04:29:50.520Z,1020.02
2017-04-09T04:30:59.472Z,1020.01
2017-04-09T04:32:08.427Z,1019.98
2017-04-09T04:33:17.632Z,1019.99
2017-04-09T04:34:26.591Z,1020
2017-04-09T04:35:35.544Z,1019.97
2017-04-09T04:36:44.502Z,1019.98
2017-04-09T04:37:53.457Z,1020
2017-04-09T04:39:02.672Z,1019.99
2017-04-09T04:40:11.634Z,1020.01
2017-04-09T04:41:20.907Z,1020.04
2017-04-09T04:42:29.946Z,1020.02
2017-04-09T04:43:38.904Z,1020.05
2017-04-09T04:44:48.121Z,1020.06
2017-04-09T04:45:57.078Z,1020.02
2017-04-09T04:47:06.030Z,1020.07
2017-04-09T04:48:14.986Z,1020.05
2017-04-09T04:49:23.958Z,1020.03
2017-04-09T04:50:33.167Z,1020.06
2017-04-09T04:51:42.129Z,1020.1
2017-04-09T04:52:51.083Z,1020.07
2017-04-09T04:54:00.042Z,1020.1
2017-04-09T04:55:09.002Z,1020.1
2017-04-09T04:56:18.217Z,1020.12
2017-04-09T04:57:27.182Z,1020.16
2017-04-09T04:58:36.135Z,1020.15
2017-04-09T04:59:45.093Z,1020.14
2017-04-09T05:00:54.056Z,1020.17
2017-04-09T05:02:03.587Z,1020.2
2017-04-09T05:03:12.547Z,1020.18
2017-04-09T05:04:21.501Z,1020.21
2017-04-09T05:05:30.453Z,1020.22
2017-04-09T05:06:39.409Z,1020.19
2017-04-09T05:07:48.612Z,1020.23
2017-04-09T05:08:57.567Z,1020.22
2017-04-09T05:10:06.532Z,1020.26
2017-04-09T05:11:15.482Z,1020.24
2017-04-09T05:12:24.441Z,1020.23
2017-04-09T05:13:33.647Z,1020.25
2017-04-09T05:14:42.608Z,1020.26
2017-04-09T05:15:51.565Z,1020.27
2017-04-09T05:17:00.521Z,1020.23
2017-04-09T05:18:09.478Z,1020.29
2017-04-09T05:19:18.691Z,1020.29
2017-04-09T05:20:27.653Z,1020.3
2017-04-09T05:21:36.605Z,1020.32
2017-04-09T05:22:45.555Z,1020.28
2017-04-09T05:23:54.511Z,1020.31
2017-04-09T05:25:03.809Z,1020.33
2017-04-09T05:26:12.773Z,1020.29
2017-04-09T05:27:21.725Z,1020.29
2017-04-09T05:28:30.680Z,1020.3
2017-04-09T05:29:39.633Z,1020.31
2017-04-09T05:30:48.851Z,1020.3
2017-04-09T05:31:57.807Z,1020.32
2017-04-09T05:33:06.765Z,1020.31
2017-04-09T05:34:15.724Z,1020.29
2017-04-09T05:35:24.681Z,1020.28
2017-04-09T05:36:33.890Z,1020.31
2017-04-09T05:37:42.879Z,1020.31
2017-04-09T05:38:51.844Z,1020.29
2017-04-09T05:40:00.795Z,1020.28
2017-04-09T05:41:09.749Z,1020.28
2017-04-09T05:42:18.965Z,1020.26
2017-04-09T05:43:27.921Z,1020.26
2017-04-09T05:44:36.873Z,1020.27
2017-04-09T05:45:45.833Z,1020.27
2017-04-09T05:46:54.822Z,1020.27
2017-04-09T05:48:04.352Z,1020.29
2017-04-09T05:49:13.305Z,1020.25
2017-04-09T05:50:22.266Z,1020.28
2017-04-09T05:51:31.246Z,1020.31
2017-04-09T05:52:40.205Z,1020.31
2017-04-09T05:53:49.409Z,1020.33
2017-04-09T05:54:58.367Z,1020.31
2017-04-09T05:56:07.327Z,1020.36
2017-04-09T05:57:16.284Z,1020.34
2017-04-09T05:58:25.329Z,1020.37
2017-04-09T05:59:34.869Z,1020.38
2017-04-09T06:00:43.834Z,1020.38
2017-04-09T06:01:53.198Z,1020.41
2017-04-09T06:03:02.478Z,1020.41
2017-04-09T06:04:11.517Z,1020.41
2017-04-09T06:05:20.723Z,1020.43
2017-04-09T06:06:29.682Z,1020.44
2017-04-09T06:07:38.973Z,1020.47
2017-04-09T06:08:47.928Z,1020.48
2017-04-09T06:09:56.977Z,1020.48
2017-04-09T06:11:06.190Z,1020.5
2017-04-09T06:12:15.143Z,1020.52
2017-04-09T06:13:24.099Z,1020.52
2017-04-09T06:14:33.061Z,1020.55
2017-04-09T06:15:42.014Z,1020.54
2017-04-09T06:16:51.225Z,1020.53
2017-04-09T06:18:00.181Z,1020.53
2017-04-09T06:19:09.136Z,1020.5
2017-04-09T06:20:18.095Z,1020.53
2017-04-09T06:21:27.049Z,1020.51
2017-04-09T06:22:36.254Z,1020.5
2017-04-09T06:23:45.212Z,1020.56
2017-04-09T06:24:54.170Z,1020.52
2017-04-09T06:26:03.213Z,1020.5
2017-04-09T06:27:12.171Z,1020.52
2017-04-09T06:28:21.390Z,1020.5
2017-04-09T06:29:30.349Z,1020.49
2017-04-09T06:30:39.308Z,1020.46
2017-04-09T06:31:48.266Z,1020.43
2017-04-09T06:32:57.227Z,1020.47
2017-04-09T06:34:06.438Z,1020.45
2017-04-09T06:35:15.392Z,1020.48
2017-04-09T06:36:24.347Z,1020.49
2017-04-09T06:37:33.305Z,1020.52
2017-04-09T06:38:42.259Z,1020.51
2017-04-09T06:39:51.464Z,1020.53
2017-04-09T06:41:00.420Z,1020.48
2017-04-09T06:42:09.388Z,1020.54
2017-04-09T06:43:18.345Z,1020.52
2017-04-09T06:44:27.399Z,1020.53
2017-04-09T06:45:36.755Z,1020.51
2017-04-09T06:46:45.731Z,1020.53
2017-04-09T06:47:54.679Z,1020.58
2017-04-09T06:49:03.635Z,1020.53
2017-04-09T06:50:12.591Z,1020.6
2017-04-09T06:51:21.796Z,1020.54
2017-04-09T06:52:30.754Z,1020.59
2017-04-09T06:53:39.722Z,1020.61
2017-04-09T06:54:48.682Z,1020.59
2017-04-09T06:55:57.641Z,1020.61
2017-04-09T06:57:06.852Z,1020.63
2017-04-09T06:58:15.807Z,1020.62
2017-04-09T06:59:24.795Z,1020.63
2017-04-09T07:00:33.751Z,1020.64
2017-04-09T07:01:42.705Z,1020.68
2017-04-09T07:02:51.909Z,1020.68
2017-04-09T07:04:00.872Z,1020.72
2017-04-09T07:05:09.835Z,1020.71
2017-04-09T07:06:18.797Z,1020.72
2017-04-09T07:07:27.762Z,1020.72
2017-04-09T07:08:36.969Z,1020.69
2017-04-09T07:09:45.928Z,1020.7
2017-04-09T07:10:54.979Z,1020.71
2017-04-09T07:12:03.946Z,1020.74
2017-04-09T07:13:12.905Z,1020.73
2017-04-09T07:14:22.124Z,1020.79
2017-04-09T07:15:31.084Z,1020.78
2017-04-09T07:16:40.040Z,1020.78
2017-04-09T07:17:48.998Z,1020.87
2017-04-09T07:18:57.968Z,1020.89
2017-04-09T07:20:07.181Z,1020.84
2017-04-09T07:21:16.168Z,1020.87
2017-04-09T07:22:25.124Z,1020.86
2017-04-09T07:23:34.079Z,1020.88
2017-04-09T07:24:43.041Z,1020.86
2017-04-09T07:25:52.252Z,1020.83
2017-04-09T07:27:01.211Z,1020.82
2017-04-09T07:28:10.172Z,1020.79
2017-04-09T07:29:19.135Z,1020.84
2017-04-09T07:30:28.102Z,1020.83
2017-04-09T07:31:37.312Z,1020.85
2017-04-09T07:32:46.269Z,1020.84
2017-04-09T07:33:55.224Z,1020.79
2017-04-09T07:35:04.183Z,1020.82
2017-04-09T07:36:13.141Z,1020.84
2017-04-09T07:37:22.348Z,1020.82
2017-04-09T07:38:31.304Z,1020.83
2017-04-09T07:39:40.260Z,1020.83
2017-04-09T07:40:49.219Z,1020.82
2017-04-09T07:41:58.179Z,1020.83
2017-04-09T07:43:07.428Z,1020.8
2017-04-09T07:44:16.385Z,1020.82
2017-04-09T07:45:25.348Z,1020.85
2017-04-09T07:46:34.648Z,1020.87
2017-04-09T07:47:43.607Z,1020.86
2017-04-09T07:48:52.815Z,1020.86
2017-04-09T07:50:01.777Z,1020.84
2017-04-09T07:51:10.821Z,1020.81
2017-04-09T07:52:19.780Z,1020.82
2017-04-09T07:53:28.735Z,1020.88
2017-04-09T07:54:37.946Z,1020.85
2017-04-09T07:55:46.905Z,1020.83
2017-04-09T07:56:55.866Z,1020.82
2017-04-09T07:58:04.908Z,1020.83
2017-04-09T07:59:13.864Z,1020.83
2017-04-09T08:00:23.077Z,1020.81
2017-04-09T08:01:32.034Z,1020.84
2017-04-09T08:02:40.991Z,1020.86
2017-04-09T08:03:49.966Z,1020.85
2017-04-09T08:04:58.926Z,1020.88
2017-04-09T08:06:08.133Z,1020.84
2017-04-09T08:07:17.092Z,1020.84
2017-04-09T08:08:26.055Z,1020.86
2017-04-09T08:09:35.020Z,1020.9
2017-04-09T08:10:43.984Z,1020.89
2017-04-09T08:11:53.196Z,1020.93
2017-04-09T08:13:02.172Z,1020.93
2017-04-09T08:14:11.136Z,1020.91
2017-04-09T08:15:20.093Z,1020.94
2017-04-09T08:16:29.047Z,1020.93
2017-04-09T08:17:38.250Z,1020.92
2017-04-09T08:18:47.216Z,1020.92
2017-04-09T08:19:56.256Z,1020.91
2017-04-09T08:21:05.222Z,1020.92
2017-04-09T08:22:14.185Z,1020.92
2017-04-09T08:23:23.395Z,1020.98
2017-04-09T08:24:32.355Z,1020.95
2017-04-09T08:25:41.321Z,1020.99
2017-04-09T08:26:50.284Z,1021.01
2017-04-09T08:27:59.235Z,1021.03
2017-04-09T08:29:08.459Z,1021
2017-04-09T08:30:17.420Z,1020.96
2017-04-09T08:31:26.464Z,1021
2017-04-09T08:32:35.746Z,1020.98
2017-04-09T08:33:44.700Z,1020.95
2017-04-09T08:34:53.910Z,1020.94
2017-04-09T08:36:02.874Z,1020.9
2017-04-09T08:37:11.839Z,1020.92
2017-04-09T08:38:20.800Z,1020.96
2017-04-09T08:39:29.759Z,1020.95
2017-04-09T08:40:38.968Z,1020.91
2017-04-09T08:41:47.926Z,1020.91
2017-04-09T08:42:56.884Z,1020.89
2017-04-09T08:44:05.836Z,1020.93
2017-04-09T08:45:14.793Z,1020.95
2017-04-09T08:46:24.007Z,1020.99
2017-04-09T08:47:32.964Z,1020.97
2017-04-09T08:48:41.922Z,1020.96
2017-04-09T08:49:50.880Z,1020.94
2017-04-09T08:50:59.839Z,1020.95
2017-04-09T08:52:09.054Z,1020.97
2017-04-09T08:53:18.045Z,1020.93
2017-04-09T08:54:27.007Z,1020.95
2017-04-09T08:55:35.960Z,1020.95
2017-04-09T08:56:44.935Z,1020.91
2017-04-09T08:57:54.149Z,1020.96
2017-04-09T08:59:03.137Z,1020.95
2017-04-09T09:00:12.096Z,1020.94
2017-04-09T09:01:21.051Z,1020.92
2017-04-09T09:02:30.006Z,1020.92
2017-04-09T09:03:39.300Z,1020.93
2017-04-09T09:04:48.261Z,1020.92
2017-04-09T09:05:57.224Z,1020.88
2017-04-09T09:07:06.181Z,1020.95
2017-04-09T09:08:15.136Z,1020.92
2017-04-09T09:09:24.341Z,1020.9
2017-04-09T09:10:33.298Z,1020.89
2017-04-09T09:11:42.253Z,1020.94
2017-04-09T09:12:51.213Z,1020.92
2017-04-09T09:14:00.164Z,1020.96
2017-04-09T09:15:09.373Z,1020.87
2017-04-09T09:16:18.332Z,1020.94
2017-04-09T09:17:27.289Z,1020.9
2017-04-09T09:18:36.251Z,1020.92
2017-04-09T09:19:45.301Z,1020.91
2017-04-09T09:20:54.514Z,1020.94
2017-04-09T09:22:03.471Z,1020.96
2017-04-09T09:23:12.426Z,1020.94
2017-04-09T09:24:21.388Z,1020.9
2017-04-09T09:25:30.352Z,1020.91
2017-04-09T09:26:39.567Z,1020.87
2017-04-09T09:27:48.523Z,1020.87
2017-04-09T09:28:57.480Z,1020.85
2017-04-09T09:30:06.451Z,1020.86
2017-04-09T09:31:15.410Z,1020.84
2017-04-09T09:32:24.617Z,1020.84
2017-04-09T09:33:33.581Z,1020.84
2017-04-09T09:34:42.539Z,1020.81
2017-04-09T09:35:51.508Z,1020.8
2017-04-09T09:37:00.467Z,1020.81
2017-04-09T09:38:10.008Z,1020.84
2017-04-09T09:39:18.973Z,1020.78
2017-04-09T09:40:27.936Z,1020.8
2017-04-09T09:41:36.891Z,1020.84
2017-04-09T09:42:45.849Z,1020.78
2017-04-09T09:43:55.106Z,1020.79
2017-04-09T09:45:04.062Z,1020.79
2017-04-09T09:46:13.019Z,1020.74
2017-04-09T09:47:21.976Z,1020.79
2017-04-09T09:48:30.967Z,1020.76
2017-04-09T09:49:40.183Z,1020.78
2017-04-09T09:50:49.139Z,1020.76
2017-04-09T09:51:58.096Z,1020.8
2017-04-09T09:53:07.082Z,1020.73
2017-04-09T09:54:16.043Z,1020.75
2017-04-09T09:55:25.253Z,1020.73
2017-04-09T09:56:34.646Z,1020.8
2017-04-09T09:57:43.604Z,1020.75
2017-04-09T09:58:52.566Z,1020.71
2017-04-09T10:00:01.535Z,1020.71
2017-04-09T10:01:11.110Z,1020.69
2017-04-09T10:02:20.082Z,1020.69
2017-04-09T10:03:29.046Z,1020.65
2017-04-09T10:04:38.004Z,1020.66
2017-04-09T10:05:46.966Z,1020.66
2017-04-09T10:06:56.215Z,1020.68
2017-04-09T10:08:05.172Z,1020.63
2017-04-09T10:09:14.133Z,1020.68
2017-04-09T10:10:23.415Z,1020.65
2017-04-09T10:11:32.375Z,1020.61
2017-04-09T10:12:41.591Z,1020.61
2017-04-09T10:13:50.563Z,1020.61
2017-04-09T10:14:59.537Z,1020.56
2017-04-09T10:16:08.496Z,1020.58
2017-04-09T10:17:17.488Z,1020.57
2017-04-09T10:18:26.701Z,1020.6
2017-04-09T10:19:35.667Z,1020.57
2017-04-09T10:20:44.717Z,1020.55
2017-04-09T10:21:53.675Z,1020.53
2017-04-09T10:23:02.629Z,1020.55
2017-04-09T10:24:11.891Z,1020.51
2017-04-09T10:25:20.858Z,1020.47
2017-04-09T10:26:29.820Z,1020.5
2017-04-09T10:27:38.777Z,1020.51
2017-04-09T10:28:47.738Z,1020.46
2017-04-09T10:29:56.945Z,1020.49
2017-04-09T10:31:05.906Z,1020.49
2017-04-09T10:32:14.865Z,1020.45
2017-04-09T10:33:23.817Z,1020.42
2017-04-09T10:34:32.776Z,1020.47
2017-04-09T10:35:41.984Z,1020.46
2017-04-09T10:36:50.942Z,1020.44
2017-04-09T10:37:59.902Z,1020.43
2017-04-09T10:39:08.861Z,1020.41
2017-04-09T10:40:17.843Z,1020.46
2017-04-09T10:41:27.053Z,1020.39
2017-04-09T10:42:36.013Z,1020.37
2017-04-09T10:43:44.980Z,1020.36
2017-04-09T10:44:53.938Z,1020.38
2017-04-09T10:46:02.896Z,1020.41
2017-04-09T10:47:12.109Z,1020.38
2017-04-09T10:48:21.067Z,1020.35
2017-04-09T10:49:30.023Z,1020.38
2017-04-09T10:50:38.986Z,1020.36
2017-04-09T10:51:47.946Z,1020.34
2017-04-09T10:52:57.157Z,1020.33
2017-04-09T10:54:06.125Z,1020.36
2017-04-09T10:55:15.409Z,1020.32
2017-04-09T10:56:24.372Z,1020.32
2017-04-09T10:57:33.330Z,1020.34
2017-04-09T10:58:42.543Z,1020.34
2017-04-09T10:59:51.502Z,1020.31
2017-04-09T11:01:00.455Z,1020.31
2017-04-09T11:02:09.741Z,1020.3
2017-04-09T11:03:18.697Z,1020.3
2017-04-09T11:04:27.909Z,1020.32
2017-04-09T11:05:36.875Z,1020.32
2017-04-09T11:06:45.833Z,1020.31
2017-04-09T11:07:54.794Z,1020.29
2017-04-09T11:09:03.751Z,1020.28
2017-04-09T11:10:12.958Z,1020.22
2017-04-09T11:11:21.917Z,1020.25
2017-04-09T11:12:30.870Z,1020.27
2017-04-09T11:13:39.915Z,1020.24
2017-04-09T11:14:48.871Z,1020.21
2017-04-09T11:15:58.078Z,1020.18
2017-04-09T11:17:07.039Z,1020.2
2017-04-09T11:18:15.998Z,1020.18
2017-04-09T11:19:24.951Z,1020.2
2017-04-09T11:20:33.907Z,1020.19
2017-04-09T11:21:43.124Z,1020.16
2017-04-09T11:22:52.083Z,1020.17
2017-04-09T11:24:01.045Z,1020.17
2017-04-09T11:25:10.144Z,1020.13
2017-04-09T11:26:19.107Z,1020.11
2017-04-09T11:27:28.319Z,1020.11
2017-04-09T11:28:37.292Z,1020.09
2017-04-09T11:29:46.255Z,1020.07
2017-04-09T11:30:55.220Z,1020.07
2017-04-09T11:32:04.184Z,1020.11
2017-04-09T11:33:13.400Z,1020.05
2017-04-09T11:34:22.377Z,1020.09
2017-04-09T11:35:31.340Z,1020.09
2017-04-09T11:36:40.299Z,1020.07
2017-04-09T11:37:49.257Z,1020.03
2017-04-09T11:38:58.472Z,1020.07
2017-04-09T11:40:07.439Z,1020.07
2017-04-09T11:41:16.395Z,1020.02
2017-04-09T11:42:25.351Z,1020.04
2017-04-09T11:43:34.650Z,1020.03
2017-04-09T11:44:43.855Z,1020.03
2017-04-09T11:45:52.814Z,1020.03
2017-04-09T11:47:01.774Z,1020
2017-04-09T11:48:10.747Z,1019.99
2017-04-09T11:49:19.709Z,1019.99
2017-04-09T11:50:28.920Z,1019.97
2017-04-09T11:51:37.876Z,1019.94
2017-04-09T11:52:46.935Z,1019.95
2017-04-09T11:53:55.901Z,1019.94
2017-04-09T11:55:04.861Z,1019.92
2017-04-09T11:56:14.076Z,1019.9
2017-04-09T11:57:23.037Z,1019.93
2017-04-09T11:58:31.996Z,1019.94
2017-04-09T11:59:40.961Z,1019.92
2017-04-09T12:00:49.921Z,1019.91
2017-04-09T12:01:59.182Z,1019.87
2017-04-09T12:03:08.140Z,1019.83
2017-04-09T12:04:17.097Z,1019.86
2017-04-09T12:05:26.058Z,1019.76
2017-04-09T12:06:35.019Z,1019.82
2017-04-09T12:07:44.260Z,1019.84
2017-04-09T12:08:53.222Z,1019.84
2017-04-09T12:10:02.186Z,1019.81
2017-04-09T12:11:11.154Z,1019.72
2017-04-09T12:12:20.116Z,1019.75
2017-04-09T12:13:29.321Z,1019.77
2017-04-09T12:14:38.284Z,1019.76
2017-04-09T12:15:47.250Z,1019.75
2017-04-09T12:16:56.210Z,1019.71
2017-04-09T12:18:05.175Z,1019.69
2017-04-09T12:19:14.713Z,1019.66
2017-04-09T12:20:23.680Z,1019.64
2017-04-09T12:21:32.640Z,1019.65
2017-04-09T12:22:41.607Z,1019.64
2017-04-09T12:23:50.564Z,1019.61
2017-04-09T12:24:59.769Z,1019.56
2017-04-09T12:26:09.052Z,1019.56
2017-04-09T12:27:18.013Z,1019.56
2017-04-09T12:28:26.968Z,1019.55
2017-04-09T12:29:35.938Z,1019.52
2017-04-09T12:30:45.142Z,1019.53
2017-04-09T12:31:54.101Z,1019.53
2017-04-09T12:33:03.060Z,1019.54
2017-04-09T12:34:12.022Z,1019.51
2017-04-09T12:35:20.984Z,1019.41
2017-04-09T12:36:30.193Z,1019.42
2017-04-09T12:37:39.168Z,1019.45
2017-04-09T12:38:48.128Z,1019.45
2017-04-09T12:39:57.089Z,1019.43
2017-04-09T12:41:06.049Z,1019.42
2017-04-09T12:42:15.264Z,1019.41
2017-04-09T12:43:24.231Z,1019.41
2017-04-09T12:44:33.202Z,1019.35
2017-04-09T12:45:42.161Z,1019.37
2017-04-09T12:46:51.244Z,1019.36
2017-04-09T12:48:00.459Z,1019.31
2017-04-09T12:49:09.424Z,1019.33
2017-04-09T12:50:18.395Z,1019.36
2017-04-09T12:51:27.374Z,1019.28
2017-04-09T12:52:36.342Z,1019.32
2017-04-09T12:53:45.562Z,1019.31
2017-04-09T12:54:54.533Z,1019.32
2017-04-09T12:56:03.491Z,1019.32
2017-04-09T12:57:12.453Z,1019.36
2017-04-09T12:58:21.411Z,1019.33
2017-04-09T12:59:30.634Z,1019.34
2017-04-09T13:00:39.603Z,1019.34
2017-04-09T13:01:48.564Z,1019.36
2017-04-09T13:02:57.522Z,1019.38
2017-04-09T13:04:06.526Z,1019.38
2017-04-09T13:05:15.740Z,1019.36
2017-04-09T13:06:24.721Z,1019.32
2017-04-09T13:07:33.686Z,1019.38
2017-04-09T13:08:42.652Z,1019.33
2017-04-09T13:09:51.618Z,1019.32
2017-04-09T13:11:00.840Z,1019.33
2017-04-09T13:12:09.801Z,1019.27
2017-04-09T13:13:18.758Z,1019.3
2017-04-09T13:14:27.721Z,1019.31
2017-04-09T13:15:36.678Z,1019.29
2017-04-09T13:16:45.975Z,1019.28
2017-04-09T13:17:54.932Z,1019.26
2017-04-09T13:19:03.893Z,1019.27
2017-04-09T13:20:12.944Z,1019.31
2017-04-09T13:21:21.921Z,1019.27
2017-04-09T13:22:31.133Z,1019.2
2017-04-09T13:23:40.090Z,1019.27
2017-04-09T13:24:49.046Z,1019.22
2017-04-09T13:25:58.006Z,1019.18
2017-04-09T13:27:06.966Z,1019.16
2017-04-09T13:28:16.177Z,1019.16
2017-04-09T13:29:25.143Z,1019.18
2017-04-09T13:30:34.110Z,1019.19
2017-04-09T13:31:43.397Z,1019.23
2017-04-09T13:32:52.358Z,1019.19
2017-04-09T13:34:01.576Z,1019.22
2017-04-09T13:35:10.547Z,1019.16
2017-04-09T13:36:19.518Z,1019.08
2017-04-09T13:37:28.482Z,1019.07
2017-04-09T13:38:37.481Z,1019.06
2017-04-09T13:39:46.693Z,1019.01
2017-04-09T13:40:55.655Z,1019.06
2017-04-09T13:42:04.622Z,1018.99
2017-04-09T13:43:13.579Z,1019.02
2017-04-09T13:44:22.540Z,1019.01
2017-04-09T13:45:31.759Z,1018.97
2017-04-09T13:46:40.721Z,1018.96
2017-04-09T13:47:49.692Z,1018.93
2017-04-09T13:48:58.660Z,1018.88
2017-04-09T13:50:08.039Z,1018.89
2017-04-09T13:51:17.581Z,1018.91
2017-04-09T13:52:26.543Z,1018.85
2017-04-09T13:53:35.507Z,1018.82
2017-04-09T13:54:44.516Z,1018.86
2017-04-09T13:55:53.473Z,1018.87
2017-04-09T13:57:02.733Z,1018.88
2017-04-09T13:58:11.695Z,1018.82
2017-04-09T13:59:20.659Z,1018.81
2017-04-09T14:00:29.621Z,1018.83